Terminal Aerodrome Forecast
Issued by NWS

Home | Current Version | Previous Version | Text Only | Print | Product List | Glossary On
Versions: 1 2 3 4 5 6 7 8 9 10 11 12 13 14 15 16 17 18
492
FTUS46 KPDT 061011 AAB
TAFALW
TAF AMD
KALW 061011Z 0610/0706 VRB06KT 2SM -SN BR OVC015
      TEMPO 0610/0614 1/2SM SN FG OVC002
     FM061400 VRB03KT 2SM -SN BR OVC015
     FM062000 25006KT P6SM OVC025
     FM070300 15003KT 4SM BR OVC015=

USA.gov is the U.S. government's official web portal to all federal, state and local government web resources and services.